Aérodrome :
LOGIN :

S'inscrire | Disclaimer

   EN    FR    IT 

 










Légende :    VFR   VFR Marginal   IFR   IFR Intensif   IFR Très Intensif
Visi : 
Plafond : 
>= 8 km
>= 3000ft
5 à 8 km
1000 à 3000 ft
1500m à 5 km
500 à 1000 ft
800 à 1500m
200 à 500 ft
< 800m
< 200 ft
Symboles :   Orages  Brouillard  Fortes neiges  Fortes précipitations  Vent > 20 kt
SIGMETs :   Divers  Orages  Givrage  Turbulence  Onde Orograph.  Cendres Volcan.






- Altitude de l'aérodrome : 375 ft
- Code IATA : MST


EHBK - Maastricht Aachen

DERNIER METAR :
  • 272255Z AUTO 22017KT 180V240 9999 FEW011 SCT016 BKN020 07/06 Q0995

METARs EXPIRÉS :
  • 272225Z AUTO 20019KT 9999 -RA FEW014 SCT025 OVC030 07/06 Q0996 REDZRA
  • 272155Z AUTO 19019KT 160V220 9999 FEW014 SCT016 BKN023 08/06 Q0996 TEMPO 7000 BKN014
  • 272125Z AUTO 19016KT 160V220 9999 SCT016 SCT020 BKN026 08/05 Q0996 REDZ BECMG 21015G25KT 7000 TEMPO BKN014
  • 272055Z AUTO 19015KT 150V220 9999 -DZ SCT028 OVC032 07/05 Q0997 REDZ BECMG 7000 TEMPO BKN014
  • 272025Z AUTO 18015KT 160V220 9999 FEW021 08/05 Q0998 REDZ BECMG 7000 TEMPO BKN014
  • 271955Z AUTO 19014KT 160V220 9999 -RA FEW025 BKN048 08/05 Q0999 BECMG 7000 -RA BKN014

TAF TAF EHBK
Valide du 27 à 18h jusqu'au 29 à 00h UTC


271705Z 2718/2824 20013KT 9999 BKN045
BECMG 2719/2721 6000 RA
TEMPO 2721/2724 BKN012
BECMG 2722/2801 21015G25KT 9999 NSW
PROB30
TEMPO 2800/2803 7000 -SHRA SCT020TCU
BECMG 2803/2806 24022G35KT
TEMPO 2803/2808 6000 SHRA RA BKN012 SCT015CB
BECMG 2815/2817 22012KT



MET'MAP, la Météo Aéronautique d'un coup d'oeil ! - Copyright ORBIFLY Décembre 2007 - Disclaimer

ORBIFLY MET'MAP TEAM :

Programmation & Développement : Alexandra Zaïnal
Sur une idée originale de : Baudouin d'Aumeries
Assistance à la programmation : Marc-Olivier Méhu
Soutien technique & logistique : Manuel Goepfert

Contact : metmap@orbifly.com




SOURCES & CREDITS :

   NOAA